sensor_id;sensor_type;location;lat;lon;timestamp;temperature;humidity
7934;DHT22;4012;48.896;9.192;2023-01-19T00:01:36;0.20;99.90
7934;DHT22;4012;48.896;9.192;2023-01-19T00:04:02;0.20;99.90
7934;DHT22;4012;48.896;9.192;2023-01-19T00:06:29;0.00;99.90
7934;DHT22;4012;48.896;9.192;2023-01-19T00:08:55;0.00;99.90
7934;DHT22;4012;48.896;9.192;2023-01-19T00:11:21;-0.10;99.90
7934;DHT22;4012;48.896;9.192;2023-01-19T00:13:46;-0.10;99.90
7934;DHT22;4012;48.896;9.192;2023-01-19T00:16:16;-0.10;99.90
7934;DHT22;4012;48.896;9.192;2023-01-19T00:18:43;-0.10;99.90
7934;DHT22;4012;48.896;9.192;2023-01-19T00:21:09;-0.10;99.90
7934;DHT22;4012;48.896;9.192;2023-01-19T00:23:35;-0.10;99.90
7934;DHT22;4012;48.896;9.192;2023-01-19T00:26:00;-0.10;99.90
7934;DHT22;4012;48.896;9.192;2023-01-19T00:28:26;-0.20;99.90
7934;DHT22;4012;48.896;9.192;2023-01-19T00:30:51;-0.30;99.90
7934;DHT22;4012;48.896;9.192;2023-01-19T00:33:17;-0.30;99.90
7934;DHT22;4012;48.896;9.192;2023-01-19T00:35:42;-0.20;99.90
7934;DHT22;4012;48.896;9.192;2023-01-19T00:38:09;-0.30;99.90
7934;DHT22;4012;48.896;9.192;2023-01-19T00:40:35;-0.30;99.90
7934;DHT22;4012;48.896;9.192;2023-01-19T00:43:01;-0.20;99.90
7934;DHT22;4012;48.896;9.192;2023-01-19T00:45:28;-0.20;99.90
7934;DHT22;4012;48.896;9.192;2023-01-19T00:47:54;-0.20;99.90
7934;DHT22;4012;48.896;9.192;2023-01-19T00:50:22;-0.20;99.90
7934;DHT22;4012;48.896;9.192;2023-01-19T00:52:48;-0.10;99.90
7934;DHT22;4012;48.896;9.192;2023-01-19T00:55:15;-0.10;99.90
7934;DHT22;4012;48.896;9.192;2023-01-19T00:57:41;-0.20;99.90
7934;DHT22;4012;48.896;9.192;2023-01-19T01:00:10;-0.10;99.90
7934;DHT22;4012;48.896;9.192;2023-01-19T01:02:37;-0.10;99.90
7934;DHT22;4012;48.896;9.192;2023-01-19T01:05:03;-0.10;99.90
7934;DHT22;4012;48.896;9.192;2023-01-19T01:07:31;-0.10;99.90
7934;DHT22;4012;48.896;9.192;2023-01-19T01:09:59;-0.10;99.90
7934;DHT22;4012;48.896;9.192;2023-01-19T01:12:26;-0.10;99.90
7934;DHT22;4012;48.896;9.192;2023-01-19T01:14:52;-0.10;99.90
7934;DHT22;4012;48.896;9.192;2023-01-19T01:17:18;-0.10;99.90
7934;DHT22;4012;48.896;9.192;2023-01-19T01:19:50;-0.20;99.90
7934;DHT22;4012;48.896;9.192;2023-01-19T01:22:16;-0.30;99.90
7934;DHT22;4012;48.896;9.192;2023-01-19T01:24:41;-0.30;99.90
7934;DHT22;4012;48.896;9.192;2023-01-19T01:27:07;-0.30;99.90
7934;DHT22;4012;48.896;9.192;2023-01-19T01:29:33;-0.30;99.90
7934;DHT22;4012;48.896;9.192;2023-01-19T01:32:00;-0.40;99.90
7934;DHT22;4012;48.896;9.192;2023-01-19T01:34:26;-0.30;99.90
7934;DHT22;4012;48.896;9.192;2023-01-19T01:36:52;-0.40;99.90
7934;DHT22;4012;48.896;9.192;2023-01-19T01:39:19;-0.40;99.90
7934;DHT22;4012;48.896;9.192;2023-01-19T01:41:44;-0.40;99.90
7934;DHT22;4012;48.896;9.192;2023-01-19T01:45:03;-0.40;99.90
7934;DHT22;4012;48.896;9.192;2023-01-19T01:48:01;-0.50;99.90
7934;DHT22;4012;48.896;9.192;2023-01-19T01:50:25;-0.60;99.90
7934;DHT22;4012;48.896;9.192;2023-01-19T01:52:56;-0.70;99.90
7934;DHT22;4012;48.896;9.192;2023-01-19T01:55:24;-0.70;99.90
7934;DHT22;4012;48.896;9.192;2023-01-19T01:57:58;-0.70;99.90
7934;DHT22;4012;48.896;9.192;2023-01-19T02:00:25;-0.80;99.90
7934;DHT22;4012;48.896;9.192;2023-01-19T02:02:51;-0.80;99.90
7934;DHT22;4012;48.896;9.192;2023-01-19T02:05:34;-0.70;99.90
7934;DHT22;4012;48.896;9.192;2023-01-19T02:08:11;-0.70;99.90
7934;DHT22;4012;48.896;9.192;2023-01-19T02:10:57;-0.70;99.90
7934;DHT22;4012;48.896;9.192;2023-01-19T02:13:42;-0.60;99.90
7934;DHT22;4012;48.896;9.192;2023-01-19T02:16:10;-0.50;99.90
7934;DHT22;4012;48.896;9.192;2023-01-19T02:18:37;-0.50;99.90
7934;DHT22;4012;48.896;9.192;2023-01-19T02:21:16;-0.50;99.90
7934;DHT22;4012;48.896;9.192;2023-01-19T02:23:48;-0.50;99.90
7934;DHT22;4012;48.896;9.192;2023-01-19T02:28:55;-0.60;99.90
7934;DHT22;4012;48.896;9.192;2023-01-19T02:31:22;-0.50;99.90
7934;DHT22;4012;48.896;9.192;2023-01-19T02:33:49;-0.50;99.90
7934;DHT22;4012;48.896;9.192;2023-01-19T02:36:16;-0.50;99.90
7934;DHT22;4012;48.896;9.192;2023-01-19T02:38:45;-0.50;99.90
7934;DHT22;4012;48.896;9.192;2023-01-19T02:41:15;-0.50;99.90
7934;DHT22;4012;48.896;9.192;2023-01-19T02:43:41;-0.50;99.90
7934;DHT22;4012;48.896;9.192;2023-01-19T02:46:08;-0.50;99.90
7934;DHT22;4012;48.896;9.192;2023-01-19T02:48:33;-0.60;99.90
7934;DHT22;4012;48.896;9.192;2023-01-19T02:51:00;-0.60;99.90
7934;DHT22;4012;48.896;9.192;2023-01-19T02:59:05;-0.60;99.90
7934;DHT22;4012;48.896;9.192;2023-01-19T03:01:54;-0.60;99.90
7934;DHT22;4012;48.896;9.192;2023-01-19T03:04:36;-0.70;99.90
7934;DHT22;4012;48.896;9.192;2023-01-19T03:07:19;-0.70;99.90
7934;DHT22;4012;48.896;9.192;2023-01-19T03:09:52;-0.70;99.90
7934;DHT22;4012;48.896;9.192;2023-01-19T03:12:51;-0.60;99.90
7934;DHT22;4012;48.896;9.192;2023-01-19T03:15:29;-0.60;99.90
7934;DHT22;4012;48.896;9.192;2023-01-19T03:17:58;-0.60;99.90
7934;DHT22;4012;48.896;9.192;2023-01-19T03:20:25;-0.60;99.90
7934;DHT22;4012;48.896;9.192;2023-01-19T03:23:00;-0.50;99.90
7934;DHT22;4012;48.896;9.192;2023-01-19T03:25:27;-0.60;99.90
7934;DHT22;4012;48.896;9.192;2023-01-19T03:27:56;-0.80;99.90
7934;DHT22;4012;48.896;9.192;2023-01-19T03:30:27;-0.80;99.90
7934;DHT22;4012;48.896;9.192;2023-01-19T03:32:58;-0.90;99.90
7934;DHT22;4012;48.896;9.192;2023-01-19T03:35:29;-0.80;99.90
7934;DHT22;4012;48.896;9.192;2023-01-19T03:37:57;-0.80;99.90
7934;DHT22;4012;48.896;9.192;2023-01-19T03:40:29;-0.70;99.90
7934;DHT22;4012;48.896;9.192;2023-01-19T03:42:55;-0.70;99.90
7934;DHT22;4012;48.896;9.192;2023-01-19T03:45:22;-0.70;99.90
7934;DHT22;4012;48.896;9.192;2023-01-19T03:47:48;-0.80;99.90
7934;DHT22;4012;48.896;9.192;2023-01-19T03:50:22;-0.80;99.90
7934;DHT22;4012;48.896;9.192;2023-01-19T03:53:00;-0.80;99.90
7934;DHT22;4012;48.896;9.192;2023-01-19T03:55:25;-0.90;99.90
7934;DHT22;4012;48.896;9.192;2023-01-19T03:57:51;-0.80;99.90
7934;DHT22;4012;48.896;9.192;2023-01-19T04:00:17;-0.70;99.90
7934;DHT22;4012;48.896;9.192;2023-01-19T04:02:43;-0.60;99.90
7934;DHT22;4012;48.896;9.192;2023-01-19T04:05:08;-0.60;99.90
7934;DHT22;4012;48.896;9.192;2023-01-19T04:07:34;-0.60;99.90
7934;DHT22;4012;48.896;9.192;2023-01-19T04:09:59;-0.70;99.90
7934;DHT22;4012;48.896;9.192;2023-01-19T04:12:25;-0.80;99.90
7934;DHT22;4012;48.896;9.192;2023-01-19T04:14:50;-0.90;99.90
7934;DHT22;4012;48.896;9.192;2023-01-19T04:17:16;-1.00;99.90
7934;DHT22;4012;48.896;9.192;2023-01-19T04:19:41;-1.00;99.90
7934;DHT22;4012;48.896;9.192;2023-01-19T04:22:07;-1.00;99.90
7934;DHT22;4012;48.896;9.192;2023-01-19T04:24:33;-1.00;99.90
7934;DHT22;4012;48.896;9.192;2023-01-19T04:26:58;-0.90;99.90
7934;DHT22;4012;48.896;9.192;2023-01-19T04:29:24;-0.90;99.90
7934;DHT22;4012;48.896;9.192;2023-01-19T04:31:50;-0.80;99.90
7934;DHT22;4012;48.896;9.192;2023-01-19T04:34:15;-0.90;99.90
7934;DHT22;4012;48.896;9.192;2023-01-19T04:36:41;-0.80;99.90
7934;DHT22;4012;48.896;9.192;2023-01-19T04:39:07;-0.80;99.90
7934;DHT22;4012;48.896;9.192;2023-01-19T04:41:33;-0.80;99.90
7934;DHT22;4012;48.896;9.192;2023-01-19T04:43:59;-0.80;99.90
7934;DHT22;4012;48.896;9.192;2023-01-19T04:46:24;-0.90;99.90
7934;DHT22;4012;48.896;9.192;2023-01-19T04:48:50;-0.90;99.90
7934;DHT22;4012;48.896;9.192;2023-01-19T04:51:15;-0.80;99.90
7934;DHT22;4012;48.896;9.192;2023-01-19T04:53:41;-0.80;99.90
7934;DHT22;4012;48.896;9.192;2023-01-19T04:56:07;-0.80;99.90
7934;DHT22;4012;48.896;9.192;2023-01-19T04:58:32;-0.80;99.90
7934;DHT22;4012;48.896;9.192;2023-01-19T05:00:58;-0.80;99.90
7934;DHT22;4012;48.896;9.192;2023-01-19T05:03:23;-0.80;99.90
7934;DHT22;4012;48.896;9.192;2023-01-19T05:05:49;-1.00;99.90
7934;DHT22;4012;48.896;9.192;2023-01-19T05:08:14;-1.00;99.90
7934;DHT22;4012;48.896;9.192;2023-01-19T05:10:40;-1.10;99.90
7934;DHT22;4012;48.896;9.192;2023-01-19T05:13:06;-1.10;99.90
7934;DHT22;4012;48.896;9.192;2023-01-19T05:15:31;-1.10;99.90
7934;DHT22;4012;48.896;9.192;2023-01-19T05:17:57;-1.10;99.90
7934;DHT22;4012;48.896;9.192;2023-01-19T05:20:23;-1.10;99.90
7934;DHT22;4012;48.896;9.192;2023-01-19T05:22:50;-1.10;99.90
7934;DHT22;4012;48.896;9.192;2023-01-19T05:25:17;-1.10;99.90
7934;DHT22;4012;48.896;9.192;2023-01-19T05:27:43;-1.10;99.90
7934;DHT22;4012;48.896;9.192;2023-01-19T05:30:09;-1.10;99.90
7934;DHT22;4012;48.896;9.192;2023-01-19T05:32:35;-1.00;99.90
7934;DHT22;4012;48.896;9.192;2023-01-19T05:35:01;-1.10;99.90
7934;DHT22;4012;48.896;9.192;2023-01-19T05:37:26;-1.10;99.90
7934;DHT22;4012;48.896;9.192;2023-01-19T05:39:52;-1.00;99.90
7934;DHT22;4012;48.896;9.192;2023-01-19T05:42:18;-1.10;99.90
7934;DHT22;4012;48.896;9.192;2023-01-19T05:44:44;-1.10;99.90
7934;DHT22;4012;48.896;9.192;2023-01-19T05:47:09;-1.20;99.90
7934;DHT22;4012;48.896;9.192;2023-01-19T05:49:35;-1.50;99.90
7934;DHT22;4012;48.896;9.192;2023-01-19T05:52:00;-1.50;99.90
7934;DHT22;4012;48.896;9.192;2023-01-19T05:54:26;-1.50;99.90
7934;DHT22;4012;48.896;9.192;2023-01-19T05:56:51;-1.40;99.90
7934;DHT22;4012;48.896;9.192;2023-01-19T05:59:17;-1.30;99.90
7934;DHT22;4012;48.896;9.192;2023-01-19T06:01:51;-1.40;99.90
7934;DHT22;4012;48.896;9.192;2023-01-19T06:04:17;-1.40;99.90
7934;DHT22;4012;48.896;9.192;2023-01-19T06:06:43;-1.40;99.90
7934;DHT22;4012;48.896;9.192;2023-01-19T06:09:09;-1.40;99.90
7934;DHT22;4012;48.896;9.192;2023-01-19T06:11:35;-1.30;99.90
7934;DHT22;4012;48.896;9.192;2023-01-19T06:14:00;-1.30;99.90
7934;DHT22;4012;48.896;9.192;2023-01-19T06:16:26;-1.30;99.90
7934;DHT22;4012;48.896;9.192;2023-01-19T06:18:52;-1.30;99.90
7934;DHT22;4012;48.896;9.192;2023-01-19T06:21:18;-1.30;99.90
7934;DHT22;4012;48.896;9.192;2023-01-19T06:23:43;-1.30;99.90
7934;DHT22;4012;48.896;9.192;2023-01-19T06:26:09;-1.20;99.90
7934;DHT22;4012;48.896;9.192;2023-01-19T06:28:35;-1.20;99.90
7934;DHT22;4012;48.896;9.192;2023-01-19T06:31:00;-1.20;99.90
7934;DHT22;4012;48.896;9.192;2023-01-19T06:33:26;-1.30;99.90
7934;DHT22;4012;48.896;9.192;2023-01-19T06:35:53;-1.30;99.90
7934;DHT22;4012;48.896;9.192;2023-01-19T06:38:18;-1.20;99.90
7934;DHT22;4012;48.896;9.192;2023-01-19T06:40:46;-1.30;99.90
7934;DHT22;4012;48.896;9.192;2023-01-19T06:43:15;-1.20;99.90
7934;DHT22;4012;48.896;9.192;2023-01-19T06:45:41;-1.10;99.90
7934;DHT22;4012;48.896;9.192;2023-01-19T06:48:07;-1.00;99.90
7934;DHT22;4012;48.896;9.192;2023-01-19T06:50:33;-0.90;99.90
7934;DHT22;4012;48.896;9.192;2023-01-19T06:52:58;-0.70;99.90
7934;DHT22;4012;48.896;9.192;2023-01-19T06:55:24;-0.60;99.90
7934;DHT22;4012;48.896;9.192;2023-01-19T06:57:59;-0.50;99.90
7934;DHT22;4012;48.896;9.192;2023-01-19T07:00:25;-0.30;99.90
7934;DHT22;4012;48.896;9.192;2023-01-19T07:02:50;-0.30;99.90
7934;DHT22;4012;48.896;9.192;2023-01-19T07:05:16;-0.30;99.90
7934;DHT22;4012;48.896;9.192;2023-01-19T07:07:42;-0.40;99.90
7934;DHT22;4012;48.896;9.192;2023-01-19T07:10:10;-0.40;99.90
7934;DHT22;4012;48.896;9.192;2023-01-19T07:12:40;-0.40;99.90
7934;DHT22;4012;48.896;9.192;2023-01-19T07:15:07;-0.40;99.90
7934;DHT22;4012;48.896;9.192;2023-01-19T07:17:33;-0.40;99.90
7934;DHT22;4012;48.896;9.192;2023-01-19T07:19:59;-0.40;99.90
7934;DHT22;4012;48.896;9.192;2023-01-19T07:22:24;-0.40;99.90
7934;DHT22;4012;48.896;9.192;2023-01-19T07:24:50;-0.30;99.90
7934;DHT22;4012;48.896;9.192;2023-01-19T07:27:16;-0.40;99.90
7934;DHT22;4012;48.896;9.192;2023-01-19T07:29:41;-0.40;99.90
7934;DHT22;4012;48.896;9.192;2023-01-19T07:32:07;-0.40;99.90
7934;DHT22;4012;48.896;9.192;2023-01-19T07:34:33;-0.40;99.90
7934;DHT22;4012;48.896;9.192;2023-01-19T07:36:59;-0.70;99.90
7934;DHT22;4012;48.896;9.192;2023-01-19T07:39:24;-1.20;99.90
7934;DHT22;4012;48.896;9.192;2023-01-19T07:41:50;-1.40;99.90
7934;DHT22;4012;48.896;9.192;2023-01-19T07:44:16;-1.30;99.90
7934;DHT22;4012;48.896;9.192;2023-01-19T07:46:41;-1.30;99.90
7934;DHT22;4012;48.896;9.192;2023-01-19T07:49:08;-1.20;99.90
7934;DHT22;4012;48.896;9.192;2023-01-19T07:51:33;-1.10;99.90
7934;DHT22;4012;48.896;9.192;2023-01-19T07:53:59;-0.90;99.90
7934;DHT22;4012;48.896;9.192;2023-01-19T07:56:26;-0.60;99.90
7934;DHT22;4012;48.896;9.192;2023-01-19T07:58:53;-0.50;99.90
7934;DHT22;4012;48.896;9.192;2023-01-19T08:01:19;-0.40;99.90
7934;DHT22;4012;48.896;9.192;2023-01-19T08:03:47;-0.30;99.90
7934;DHT22;4012;48.896;9.192;2023-01-19T08:06:19;-0.10;99.90
7934;DHT22;4012;48.896;9.192;2023-01-19T08:08:45;-0.10;99.90
7934;DHT22;4012;48.896;9.192;2023-01-19T08:11:11;-0.70;99.90
7934;DHT22;4012;48.896;9.192;2023-01-19T08:13:37;-0.70;99.90
7934;DHT22;4012;48.896;9.192;2023-01-19T08:16:02;-0.60;99.90
7934;DHT22;4012;48.896;9.192;2023-01-19T08:18:29;-0.40;99.90
7934;DHT22;4012;48.896;9.192;2023-01-19T08:20:56;-0.60;99.90
7934;DHT22;4012;48.896;9.192;2023-01-19T08:23:22;-0.30;99.90
7934;DHT22;4012;48.896;9.192;2023-01-19T08:25:48;-0.30;99.90
7934;DHT22;4012;48.896;9.192;2023-01-19T08:28:14;-0.30;99.90
7934;DHT22;4012;48.896;9.192;2023-01-19T08:30:41;-0.10;99.90
7934;DHT22;4012;48.896;9.192;2023-01-19T08:33:11;-0.30;99.90
7934;DHT22;4012;48.896;9.192;2023-01-19T08:35:39;-0.20;99.90
7934;DHT22;4012;48.896;9.192;2023-01-19T08:38:06;0.10;99.90
7934;DHT22;4012;48.896;9.192;2023-01-19T08:40:34;0.40;99.90
7934;DHT22;4012;48.896;9.192;2023-01-19T08:43:02;0.80;99.90
7934;DHT22;4012;48.896;9.192;2023-01-19T08:45:35;1.00;99.90
7934;DHT22;4012;48.896;9.192;2023-01-19T08:48:03;1.00;99.90
7934;DHT22;4012;48.896;9.192;2023-01-19T08:50:31;1.40;99.90
7934;DHT22;4012;48.896;9.192;2023-01-19T08:53:01;1.70;99.90
7934;DHT22;4012;48.896;9.192;2023-01-19T08:55:28;1.90;99.90
7934;DHT22;4012;48.896;9.192;2023-01-19T08:57:55;2.10;99.90
7934;DHT22;4012;48.896;9.192;2023-01-19T09:00:24;2.20;99.90
7934;DHT22;4012;48.896;9.192;2023-01-19T09:02:52;2.20;99.90
7934;DHT22;4012;48.896;9.192;2023-01-19T09:05:19;2.20;99.90
7934;DHT22;4012;48.896;9.192;2023-01-19T09:07:45;2.30;99.90
7934;DHT22;4012;48.896;9.192;2023-01-19T09:10:12;2.40;99.90
7934;DHT22;4012;48.896;9.192;2023-01-19T09:12:38;2.40;99.90
7934;DHT22;4012;48.896;9.192;2023-01-19T09:15:04;2.70;99.90
7934;DHT22;4012;48.896;9.192;2023-01-19T09:17:30;3.10;99.90
7934;DHT22;4012;48.896;9.192;2023-01-19T09:19:56;3.00;99.90
7934;DHT22;4012;48.896;9.192;2023-01-19T09:22:21;2.70;99.90
7934;DHT22;4012;48.896;9.192;2023-01-19T09:24:47;2.40;99.90
7934;DHT22;4012;48.896;9.192;2023-01-19T09:27:13;2.20;99.90
7934;DHT22;4012;48.896;9.192;2023-01-19T09:29:38;2.10;99.90
7934;DHT22;4012;48.896;9.192;2023-01-19T09:32:04;2.00;99.90
7934;DHT22;4012;48.896;9.192;2023-01-19T09:34:29;2.00;99.90
7934;DHT22;4012;48.896;9.192;2023-01-19T09:36:55;1.90;99.90
7934;DHT22;4012;48.896;9.192;2023-01-19T09:39:21;1.90;99.90
7934;DHT22;4012;48.896;9.192;2023-01-19T09:41:59;1.90;99.90
7934;DHT22;4012;48.896;9.192;2023-01-19T09:44:31;2.00;99.90
7934;DHT22;4012;48.896;9.192;2023-01-19T09:46:57;2.00;99.90
7934;DHT22;4012;48.896;9.192;2023-01-19T09:49:44;2.10;99.90
7934;DHT22;4012;48.896;9.192;2023-01-19T09:52:13;2.20;99.90
7934;DHT22;4012;48.896;9.192;2023-01-19T09:57:11;2.60;99.90
7934;DHT22;4012;48.896;9.192;2023-01-19T09:59:38;2.80;99.90
7934;DHT22;4012;48.896;9.192;2023-01-19T10:02:35;3.10;99.90
7934;DHT22;4012;48.896;9.192;2023-01-19T10:05:20;3.20;99.90
7934;DHT22;4012;48.896;9.192;2023-01-19T10:10:22;3.30;99.90
7934;DHT22;4012;48.896;9.192;2023-01-19T10:18:27;3.20;99.90
7934;DHT22;4012;48.896;9.192;2023-01-19T10:21:08;3.20;99.90
7934;DHT22;4012;48.896;9.192;2023-01-19T10:23:40;3.30;99.90
7934;DHT22;4012;48.896;9.192;2023-01-19T10:26:22;3.40;99.90
7934;DHT22;4012;48.896;9.192;2023-01-19T10:28:52;3.40;99.90
7934;DHT22;4012;48.896;9.192;2023-01-19T10:31:22;3.40;99.90
7934;DHT22;4012;48.896;9.192;2023-01-19T10:33:51;3.40;99.90
7934;DHT22;4012;48.896;9.192;2023-01-19T10:36:18;3.50;99.90
7934;DHT22;4012;48.896;9.192;2023-01-19T10:38:45;3.80;99.90
7934;DHT22;4012;48.896;9.192;2023-01-19T10:41:16;3.90;99.90
7934;DHT22;4012;48.896;9.192;2023-01-19T10:43:43;4.10;99.90
7934;DHT22;4012;48.896;9.192;2023-01-19T10:46:15;4.20;99.90
7934;DHT22;4012;48.896;9.192;2023-01-19T10:48:42;4.20;99.90
7934;DHT22;4012;48.896;9.192;2023-01-19T10:51:09;4.20;99.90
7934;DHT22;4012;48.896;9.192;2023-01-19T10:53:35;4.10;99.90
7934;DHT22;4012;48.896;9.192;2023-01-19T10:56:22;4.00;99.90
7934;DHT22;4012;48.896;9.192;2023-01-19T10:58:48;4.00;99.90
7934;DHT22;4012;48.896;9.192;2023-01-19T11:01:23;4.50;99.90
7934;DHT22;4012;48.896;9.192;2023-01-19T11:03:49;4.80;99.90
7934;DHT22;4012;48.896;9.192;2023-01-19T11:06:19;4.90;99.90
7934;DHT22;4012;48.896;9.192;2023-01-19T11:08:46;4.70;99.90
7934;DHT22;4012;48.896;9.192;2023-01-19T11:11:13;4.50;99.90
7934;DHT22;4012;48.896;9.192;2023-01-19T11:13:39;3.90;99.90
7934;DHT22;4012;48.896;9.192;2023-01-19T11:16:13;3.80;99.90
7934;DHT22;4012;48.896;9.192;2023-01-19T11:18:40;4.00;99.90
7934;DHT22;4012;48.896;9.192;2023-01-19T11:21:11;4.10;99.90
7934;DHT22;4012;48.896;9.192;2023-01-19T11:23:58;4.30;99.90
7934;DHT22;4012;48.896;9.192;2023-01-19T11:26:32;4.40;99.90
7934;DHT22;4012;48.896;9.192;2023-01-19T11:29:01;4.60;99.90
7934;DHT22;4012;48.896;9.192;2023-01-19T11:33:55;4.30;99.90
7934;DHT22;4012;48.896;9.192;2023-01-19T11:36:29;4.50;99.90
7934;DHT22;4012;48.896;9.192;2023-01-19T11:39:21;4.10;99.90
7934;DHT22;4012;48.896;9.192;2023-01-19T11:41:52;4.40;99.90
7934;DHT22;4012;48.896;9.192;2023-01-19T11:44:43;4.60;99.90
7934;DHT22;4012;48.896;9.192;2023-01-19T11:47:16;4.70;99.90
7934;DHT22;4012;48.896;9.192;2023-01-19T11:50:00;4.60;99.90
7934;DHT22;4012;48.896;9.192;2023-01-19T11:52:36;4.40;99.90
7934;DHT22;4012;48.896;9.192;2023-01-19T11:58:15;3.80;99.90
7934;DHT22;4012;48.896;9.192;2023-01-19T12:00:46;3.70;99.90
7934;DHT22;4012;48.896;9.192;2023-01-19T12:06:03;3.70;99.90
7934;DHT22;4012;48.896;9.192;2023-01-19T12:08:36;3.50;99.90
7934;DHT22;4012;48.896;9.192;2023-01-19T12:11:05;3.50;99.90
7934;DHT22;4012;48.896;9.192;2023-01-19T12:13:34;3.50;99.90
7934;DHT22;4012;48.896;9.192;2023-01-19T12:16:11;3.30;99.90
7934;DHT22;4012;48.896;9.192;2023-01-19T12:18:53;3.30;99.90
7934;DHT22;4012;48.896;9.192;2023-01-19T12:21:20;3.10;99.90
7934;DHT22;4012;48.896;9.192;2023-01-19T12:26:56;2.90;99.90
7934;DHT22;4012;48.896;9.192;2023-01-19T12:29:29;2.90;99.90
7934;DHT22;4012;48.896;9.192;2023-01-19T12:40:25;2.30;99.90
7934;DHT22;4012;48.896;9.192;2023-01-19T12:43:00;2.10;99.90
7934;DHT22;4012;48.896;9.192;2023-01-19T12:45:36;2.10;99.90
7934;DHT22;4012;48.896;9.192;2023-01-19T12:48:04;2.20;99.90
7934;DHT22;4012;48.896;9.192;2023-01-19T12:50:36;2.30;99.90
7934;DHT22;4012;48.896;9.192;2023-01-19T12:53:05;2.30;99.90
7934;DHT22;4012;48.896;9.192;2023-01-19T12:55:39;2.20;99.90
7934;DHT22;4012;48.896;9.192;2023-01-19T12:58:15;2.30;99.90
7934;DHT22;4012;48.896;9.192;2023-01-19T13:00:44;2.10;99.90
7934;DHT22;4012;48.896;9.192;2023-01-19T13:13:37;2.20;99.90
7934;DHT22;4012;48.896;9.192;2023-01-19T13:21:40;2.30;99.90
7934;DHT22;4012;48.896;9.192;2023-01-19T13:24:14;2.40;99.90
7934;DHT22;4012;48.896;9.192;2023-01-19T13:29:21;2.80;99.90
7934;DHT22;4012;48.896;9.192;2023-01-19T13:31:49;2.70;99.90
7934;DHT22;4012;48.896;9.192;2023-01-19T13:34:25;2.60;99.90
7934;DHT22;4012;48.896;9.192;2023-01-19T13:36:54;2.90;99.90
7934;DHT22;4012;48.896;9.192;2023-01-19T13:39:33;3.00;99.90
7934;DHT22;4012;48.896;9.192;2023-01-19T13:42:04;3.10;99.90
7934;DHT22;4012;48.896;9.192;2023-01-19T13:44:42;3.00;99.90
7934;DHT22;4012;48.896;9.192;2023-01-19T13:47:20;3.20;99.90
7934;DHT22;4012;48.896;9.192;2023-01-19T13:49:47;3.30;99.90
7934;DHT22;4012;48.896;9.192;2023-01-19T13:52:21;3.20;99.90
7934;DHT22;4012;48.896;9.192;2023-01-19T13:57:37;3.20;99.90
7934;DHT22;4012;48.896;9.192;2023-01-19T14:02:57;3.40;99.90
7934;DHT22;4012;48.896;9.192;2023-01-19T14:10:35;3.10;99.90
7934;DHT22;4012;48.896;9.192;2023-01-19T14:13:16;3.10;99.90
7934;DHT22;4012;48.896;9.192;2023-01-19T14:15:43;3.00;99.90
7934;DHT22;4012;48.896;9.192;2023-01-19T14:20:59;3.20;99.90
7934;DHT22;4012;48.896;9.192;2023-01-19T14:23:49;3.50;99.90
7934;DHT22;4012;48.896;9.192;2023-01-19T14:26:38;3.40;99.90
7934;DHT22;4012;48.896;9.192;2023-01-19T14:31:45;3.60;99.90
7934;DHT22;4012;48.896;9.192;2023-01-19T14:34:34;3.60;99.90
7934;DHT22;4012;48.896;9.192;2023-01-19T14:37:02;3.20;99.90
7934;DHT22;4012;48.896;9.192;2023-01-19T14:39:34;3.40;99.90
7934;DHT22;4012;48.896;9.192;2023-01-19T14:42:03;3.40;99.90
7934;DHT22;4012;48.896;9.192;2023-01-19T14:44:50;3.50;99.90
7934;DHT22;4012;48.896;9.192;2023-01-19T14:47:37;3.50;99.90
7934;DHT22;4012;48.896;9.192;2023-01-19T14:52:41;3.50;99.90
7934;DHT22;4012;48.896;9.192;2023-01-19T14:55:20;3.50;99.90
7934;DHT22;4012;48.896;9.192;2023-01-19T14:57:47;3.30;99.90
7934;DHT22;4012;48.896;9.192;2023-01-19T15:00:18;3.30;99.90
7934;DHT22;4012;48.896;9.192;2023-01-19T15:02:45;3.20;99.90
7934;DHT22;4012;48.896;9.192;2023-01-19T15:05:11;3.20;99.90
7934;DHT22;4012;48.896;9.192;2023-01-19T15:07:40;3.30;99.90
7934;DHT22;4012;48.896;9.192;2023-01-19T15:10:18;3.30;99.90
7934;DHT22;4012;48.896;9.192;2023-01-19T15:12:46;3.30;99.90
7934;DHT22;4012;48.896;9.192;2023-01-19T15:15:17;3.40;99.90
7934;DHT22;4012;48.896;9.192;2023-01-19T15:17:44;3.40;99.90
7934;DHT22;4012;48.896;9.192;2023-01-19T15:20:16;3.30;99.90
7934;DHT22;4012;48.896;9.192;2023-01-19T15:22:42;3.30;99.90
7934;DHT22;4012;48.896;9.192;2023-01-19T15:25:11;3.30;99.90
7934;DHT22;4012;48.896;9.192;2023-01-19T15:27:37;3.30;99.90
7934;DHT22;4012;48.896;9.192;2023-01-19T15:30:11;3.20;99.90
7934;DHT22;4012;48.896;9.192;2023-01-19T15:32:37;3.00;99.90
7934;DHT22;4012;48.896;9.192;2023-01-19T15:35:26;2.90;99.90
7934;DHT22;4012;48.896;9.192;2023-01-19T15:37:51;2.80;99.90
7934;DHT22;4012;48.896;9.192;2023-01-19T15:40:18;2.80;99.90
7934;DHT22;4012;48.896;9.192;2023-01-19T15:42:44;2.80;99.90
7934;DHT22;4012;48.896;9.192;2023-01-19T15:47:47;2.70;99.90
7934;DHT22;4012;48.896;9.192;2023-01-19T15:50:13;2.60;99.90
7934;DHT22;4012;48.896;9.192;2023-01-19T15:52:39;2.60;99.90
7934;DHT22;4012;48.896;9.192;2023-01-19T15:55:05;2.60;99.90
7934;DHT22;4012;48.896;9.192;2023-01-19T15:57:31;2.50;99.90
7934;DHT22;4012;48.896;9.192;2023-01-19T15:59:59;2.50;99.90
7934;DHT22;4012;48.896;9.192;2023-01-19T16:02:24;2.60;99.90
7934;DHT22;4012;48.896;9.192;2023-01-19T16:04:50;2.80;99.90
7934;DHT22;4012;48.896;9.192;2023-01-19T16:07:15;2.80;99.90
7934;DHT22;4012;48.896;9.192;2023-01-19T16:09:41;2.90;99.90
7934;DHT22;4012;48.896;9.192;2023-01-19T16:12:06;2.90;99.90
7934;DHT22;4012;48.896;9.192;2023-01-19T16:14:32;2.90;99.90
7934;DHT22;4012;48.896;9.192;2023-01-19T16:16:58;2.90;99.90
7934;DHT22;4012;48.896;9.192;2023-01-19T16:19:30;2.90;99.90
7934;DHT22;4012;48.896;9.192;2023-01-19T16:21:55;2.80;99.90
7934;DHT22;4012;48.896;9.192;2023-01-19T16:24:21;2.80;99.90
7934;DHT22;4012;48.896;9.192;2023-01-19T16:26:47;2.80;99.90
7934;DHT22;4012;48.896;9.192;2023-01-19T16:29:13;2.90;99.90
7934;DHT22;4012;48.896;9.192;2023-01-19T16:31:40;2.80;99.90
7934;DHT22;4012;48.896;9.192;2023-01-19T16:34:07;2.80;99.90
7934;DHT22;4012;48.896;9.192;2023-01-19T16:36:35;2.80;99.90
7934;DHT22;4012;48.896;9.192;2023-01-19T16:39:14;2.80;99.90
7934;DHT22;4012;48.896;9.192;2023-01-19T16:41:41;2.70;99.90
7934;DHT22;4012;48.896;9.192;2023-01-19T16:44:08;2.80;99.90
7934;DHT22;4012;48.896;9.192;2023-01-19T16:46:35;2.90;99.90
7934;DHT22;4012;48.896;9.192;2023-01-19T16:49:04;2.80;99.90
7934;DHT22;4012;48.896;9.192;2023-01-19T16:51:30;2.80;99.90
7934;DHT22;4012;48.896;9.192;2023-01-19T16:53:56;2.70;99.90
7934;DHT22;4012;48.896;9.192;2023-01-19T16:56:21;2.60;99.90
7934;DHT22;4012;48.896;9.192;2023-01-19T16:58:47;2.60;99.90
7934;DHT22;4012;48.896;9.192;2023-01-19T17:01:17;2.60;99.90
7934;DHT22;4012;48.896;9.192;2023-01-19T17:03:44;2.50;99.90
7934;DHT22;4012;48.896;9.192;2023-01-19T17:06:12;2.50;99.90
7934;DHT22;4012;48.896;9.192;2023-01-19T17:08:38;2.50;99.90
7934;DHT22;4012;48.896;9.192;2023-01-19T17:11:12;2.40;99.90
7934;DHT22;4012;48.896;9.192;2023-01-19T17:13:38;2.40;99.90
7934;DHT22;4012;48.896;9.192;2023-01-19T17:16:04;2.40;99.90
7934;DHT22;4012;48.896;9.192;2023-01-19T17:18:33;2.40;99.90
7934;DHT22;4012;48.896;9.192;2023-01-19T17:21:00;2.30;99.90
7934;DHT22;4012;48.896;9.192;2023-01-19T17:23:26;2.20;99.90
7934;DHT22;4012;48.896;9.192;2023-01-19T17:25:53;2.20;99.90
7934;DHT22;4012;48.896;9.192;2023-01-19T17:28:20;2.20;99.90
7934;DHT22;4012;48.896;9.192;2023-01-19T17:30:46;2.20;99.90
7934;DHT22;4012;48.896;9.192;2023-01-19T17:33:12;2.10;99.90
7934;DHT22;4012;48.896;9.192;2023-01-19T17:35:38;1.90;99.90
7934;DHT22;4012;48.896;9.192;2023-01-19T17:38:03;1.80;99.90
7934;DHT22;4012;48.896;9.192;2023-01-19T17:40:29;1.80;99.90